KGGW/GGW METAR and TAF weather

Enter ICAO airport designator
Station Type Date Time Source
KGGW METAR 2020/06/01 14:53 UTC NOAA

KGGW 011453Z AUTO 31012KT 10SM CLR 18/04 A2992 RMK AO2 SLP125 T01830039 53013


Station Type Date Time Source
KGGW Decoded METAR 2020/06/01 14:53 UTC NOAA

GLASGOW INTERNATIONAL AIRPORT , MT, United States (KGGW) 48-13N 106-37W 693M
Jun 01, 2020 - 10:53 AM EDT / 2020.06.01 1453 UTC
Wind: from the NW (310 degrees) at 14 MPH (12 KT):0
Visibility: 10 mile(s):0
Sky conditions: clear
Temperature: 64.9 F (18.3 C)
Dew Point: 39.0 F (3.9 C)
Relative Humidity: 38%
Pressure (altimeter): 29.92 in. Hg (1013 hPa)
Pressure tendency: 0.04 inches (1.3 hPa) higher than three hours ago
ob: KGGW 011453Z AUTO 31012KT 10SM CLR 18/04 A2992 RMK AO2 SLP125 T01830039 53013
cycle: 15

Station Type Date Time Source
KGGW TAF 2020/06/01 12:36 UTC NOAA

TAF KGGW 011133Z 0112/0212 28009KT P6SM FEW250
FM020700 31010KT P6SM BKN060
FM021100 27007KT P6SM SCT060

Example: see airport list